createdAt,value
2017-02-15T00:05:34.717Z,1024.42
2017-02-15T00:15:34.783Z,1024.37
2017-02-15T00:25:34.736Z,1024.31
2017-02-15T00:35:34.693Z,1024.33
2017-02-15T00:45:34.755Z,1024.36
2017-02-15T00:55:34.716Z,1024.32
2017-02-15T01:05:34.671Z,1024.32
2017-02-15T01:15:34.739Z,1024.33
2017-02-15T01:25:34.713Z,1024.46
2017-02-15T01:35:34.667Z,1024.45
2017-02-15T01:45:34.729Z,1024.34
2017-02-15T01:55:34.682Z,1024.27
2017-02-15T02:05:34.647Z,1024.27
2017-02-15T02:15:34.702Z,1024.22
2017-02-15T02:25:34.667Z,1024.21
2017-02-15T02:35:34.737Z,1024.25
2017-02-15T02:45:34.703Z,1024.28
2017-02-15T02:55:34.660Z,1024.3
2017-02-15T03:05:34.742Z,1024.54
2017-02-15T03:15:34.673Z,1024.62
2017-02-15T03:25:34.633Z,1024.64
2017-02-15T03:35:34.697Z,1024.63
2017-02-15T03:45:34.664Z,1024.68
2017-02-15T03:55:34.617Z,1024.7
2017-02-15T04:05:34.681Z,1024.73
2017-02-15T04:15:34.642Z,1024.79
2017-02-15T04:25:34.605Z,1024.83
2017-02-15T04:35:34.680Z,1024.89
2017-02-15T04:45:34.627Z,1024.82
2017-02-15T04:55:34.702Z,1024.88
2017-02-15T05:05:34.649Z,1024.87
2017-02-15T05:15:34.611Z,1024.93
2017-02-15T05:25:34.687Z,1024.9
2017-02-15T05:35:34.642Z,1024.91
2017-02-15T05:45:34.603Z,1024.83
2017-02-15T05:55:34.663Z,1024.87
2017-02-15T06:05:35.644Z,1024.92
2017-02-15T06:15:34.581Z,1024.97
2017-02-15T06:25:34.660Z,1025.07
2017-02-15T06:35:34.601Z,1025.19
2017-02-15T06:45:34.560Z,1025.19
2017-02-15T06:55:34.630Z,1025.3
2017-02-15T07:05:34.603Z,1025.44
2017-02-15T07:15:34.548Z,1025.46
2017-02-15T07:25:34.625Z,1025.57
2017-02-15T07:35:34.572Z,1025.61
2017-02-15T07:45:34.637Z,1025.76
2017-02-15T07:55:34.591Z,1025.74
2017-02-15T08:05:34.556Z,1025.73
2017-02-15T08:15:34.624Z,1025.83
2017-02-15T08:25:34.584Z,1025.77
2017-02-15T08:35:34.539Z,1025.8
2017-02-15T08:45:34.608Z,1025.87
2017-02-15T08:55:36.728Z,1025.95
2017-02-15T09:05:34.529Z,1025.97
2017-02-15T09:15:34.581Z,1025.92
2017-02-15T09:25:34.543Z,1026.02
2017-02-15T09:35:34.616Z,1025.95
2017-02-15T09:45:34.627Z,1025.89
2017-02-15T09:55:34.493Z,1025.94
2017-02-15T10:05:34.511Z,1025.95
2017-02-15T10:15:34.509Z,1025.99
2017-02-15T10:25:34.498Z,1025.88
2017-02-15T10:35:34.537Z,1025.91
2017-02-15T10:45:34.481Z,1025.85
2017-02-15T10:55:34.489Z,1025.76
2017-02-15T11:05:34.500Z,1025.72
2017-02-15T11:15:34.483Z,1025.72
2017-02-15T11:25:34.484Z,1025.59
2017-02-15T11:35:34.484Z,1025.5
2017-02-15T11:45:34.479Z,1025.37
2017-02-15T11:55:34.529Z,1025.26
2017-02-15T12:05:34.476Z,1025.29
2017-02-15T12:15:34.493Z,1025.12
2017-02-15T12:25:34.479Z,1025.06
2017-02-15T12:35:34.510Z,1024.99
2017-02-15T12:45:34.483Z,1024.97
2017-02-15T12:55:34.480Z,1024.94
2017-02-15T13:05:34.477Z,1024.86
2017-02-15T13:15:34.476Z,1024.74
2017-02-15T13:25:34.572Z,1024.65
2017-02-15T13:35:34.472Z,1024.72
2017-02-15T13:45:34.482Z,1024.71
2017-02-15T13:55:34.472Z,1024.64
2017-02-15T14:05:34.474Z,1024.52
2017-02-15T14:15:34.478Z,1024.54
2017-02-15T14:25:34.487Z,1024.42
2017-02-15T14:45:39.122Z,1024.48
2017-02-15T14:55:34.579Z,1024.46
2017-02-15T15:05:39.241Z,1024.36
2017-02-15T15:25:34.488Z,1024.2
2017-02-15T15:35:44.062Z,1024.1
2017-02-15T15:55:40.655Z,1024
2017-02-15T16:05:34.680Z,1024.02
2017-02-15T16:15:38.948Z,1023.98
2017-02-15T16:25:36.926Z,1023.93
2017-02-15T16:35:44.546Z,1023.89
2017-02-15T16:45:39.420Z,1023.94
2017-02-15T16:55:41.774Z,1023.79
2017-02-15T17:25:34.470Z,1023.77
2017-02-15T17:35:43.670Z,1023.79
2017-02-15T18:35:34.464Z,1023.52
2017-02-15T19:05:34.492Z,1023.44
2017-02-15T19:25:44.153Z,1023.38
2017-02-15T19:35:34.514Z,1023.37
2017-02-15T20:55:34.596Z,1023.55
2017-02-15T21:25:35.105Z,1023.56
2017-02-15T21:45:34.637Z,1023.61
2017-02-15T22:05:34.662Z,1023.41
2017-02-15T22:15:34.727Z,1023.36
2017-02-15T22:25:38.245Z,1023.38
2017-02-15T22:35:34.758Z,1023.4
2017-02-15T22:45:41.831Z,1023.39
2017-02-15T22:55:35.673Z,1023.39
2017-02-15T23:05:34.760Z,1023.37
2017-02-15T23:15:34.802Z,1023.28
2017-02-15T23:25:34.767Z,1023.25
2017-02-15T23:35:34.727Z,1023.27
2017-02-15T23:45:34.782Z,1023.19
2017-02-15T23:55:34.827Z,1023.21
